Ashland, LA

2:21 AM CDT on October 01, 2014 (GMT -0500)
Minden | Change Station
CLOSE
Current Station
Airport
Location: Minden,
Elevation: 279 ft
Nearby Weather Stations

Elev 279 ft 32.65 °N, 93.30 °W | Updated 26 minutes ago

Partly Cloudy
Partly Cloudy
75 °F
Feels Like 75 °F
N
4
Wind Variable Wind from ESE

Today
High -- | Low -- °F
--% Chance of Precip.
Yesterday
High -- | Low -- °F
Precip. -- in
7:06 AM 6:57 PM
Waxing Crescent, 44% visible
Pressure 29.84 in
Visibility 10.0 miles
Clouds Scattered Clouds 4500 ft
Scattered Clouds 4900 ft
Scattered Clouds 12000 ft
Dew Point 68 °F
Humidity 78%
Rainfall 0.00 in
Snow Depth Not available.
UV 0 out of 12
Pollen 8.50 out of 12
Air Quality Not available.
Flu Activity Not available.
METAR KMNE 010655Z AUTO 11003KT 10SM SCT045 SCT049 SCT120 24/20 A2984 RMK AO2

More Conditions Fewer Conditions

Pressure 29.84 in
Visibility 10.0 miles
Clouds Scattered Clouds 4500 ft
Scattered Clouds 4900 ft
Scattered Clouds 12000 ft
Dew Point 68 °F
Humidity 78%
Rainfall 0.00 in
Snow Depth Not available.
UV 0 out of 12
Pollen 8.50 out of 12
Air Quality Not available.
Flu Activity Not available.
METAR KMNE 010655Z AUTO 11003KT 10SM SCT045 SCT049 SCT120 24/20 A2984 RMK AO2

More Conditions Fewer Conditions

10-Day Weather Forecast

Almanac

Astronomy

Oct. 01, 2014 Rise Set
Actual Time 7:06 AM CDT 6:57 PM CDT
Civil Twilight 6:42 AM CDT 7:21 PM CDT
Nautical Twilight 6:13 AM CDT 7:49 PM CDT
Astronomical Twilight 5:45 AM CDT 8:18 PM CDT
Moon 1:53 PM CDT No Moon Set
Length of Visible Light 12h 39m
Length of Day
11h 50m
Tomorrow will be 1m 56s shorter.
Waxing Crescent, 44% of the Moon is Illuminated
Today
Waxing Crescent
Oct 1
First Quarter
Oct 8
Full
Oct 15
Last Quarter
Oct 23
New

Today's Extremes

State Highs State Lows

Community

WunderPhotos

Upload Photos

1,757,898 photos uploaded!

Nearby

Snow Depth

Station Depth Elevation
No new snow has been reported.

Earthquake Activity

City Distance Mag. Time & Date
No recent earthquake activity has been reported nearby.
Minimum magnitude displayed is 2.5.

Coastal Water Temperatures

Place Temperature
No Stations Reporting

Nearby Weather Stations